Time;durP1;ratioP1;P1;durP2;ratioP2;P2;SDS_P1;SDS_P2;PMS_P1;PMS_P2;Temp;Humidity;BMP_temperature;BMP_pressure;BME280_temperature;BME280_humidity;BME280_pressure;Samples;Min_cycle;Max_cycle;Signal;HPM_P1;HPM_P2
2021/05/31 00:02:21;;;;;;;1999.90;999.90;;;15.00;99.90;;;;;;5142507;22;20189;-80
2021/05/31 00:04:47;;;;;;;1999.90;999.90;;;15.20;99.90;;;;;;5076046;28;20534;-80
2021/05/31 00:07:18;;;;;;;1999.90;999.90;;;15.20;99.90;;;;;;5076087;28;20265;-80
2021/05/31 00:09:45;;;;;;;1999.90;999.90;;;15.30;99.90;;;;;;5077296;28;20189;-79
2021/05/31 00:12:15;;;;;;;1999.90;999.90;;;15.20;99.90;;;;;;5075663;28;20542;-79
2021/05/31 00:14:44;;;;;;;1999.90;999.90;;;15.10;99.90;;;;;;5076925;28;20444;-80
2021/05/31 00:17:11;;;;;;;1999.90;999.90;;;15.00;99.90;;;;;;5077147;28;20396;-79
2021/05/31 00:19:36;;;;;;;1999.90;999.90;;;14.90;99.90;;;;;;5076833;28;20457;-80
2021/05/31 00:22:03;;;;;;;1999.90;999.90;;;14.80;99.90;;;;;;5077142;28;20819;-80
2021/05/31 00:24:29;;;;;;;1999.90;999.90;;;14.70;99.90;;;;;;5076398;28;20173;-79
2021/05/31 00:26:55;;;;;;;1999.90;999.90;;;14.80;99.90;;;;;;5075125;28;20404;-80
2021/05/31 00:29:24;;;;;;;1999.90;999.90;;;14.60;99.90;;;;;;5075565;28;20200;-79
2021/05/31 00:31:54;;;;;;;1999.90;999.90;;;14.50;99.90;;;;;;5076894;28;20231;-80
2021/05/31 00:34:20;;;;;;;1999.90;999.90;;;14.50;99.90;;;;;;5075651;28;20403;-80
2021/05/31 00:36:46;;;;;;;1999.90;999.90;;;14.40;99.90;;;;;;5077216;28;20464;-79
2021/05/31 00:39:12;;;;;;;1999.90;999.90;;;14.40;99.90;;;;;;5075599;28;20446;-79
2021/05/31 00:41:38;;;;;;;1999.90;999.90;;;14.50;99.90;;;;;;5076824;28;20453;-79
2021/05/31 00:44:04;;;;;;;1999.90;999.90;;;14.30;99.90;;;;;;5076830;28;20398;-80
2021/05/31 00:46:29;;;;;;;1999.90;999.90;;;14.30;99.90;;;;;;5077194;28;20391;-79
2021/05/31 00:48:56;;;;;;;1999.90;999.90;;;14.10;1.00;;;;;;5077000;28;20427;-80
2021/05/31 00:51:21;;;;;;;1999.90;999.90;;;14.00;1.00;;;;;;5076569;28;20169;-80
2021/05/31 00:53:47;;;;;;;1999.90;999.90;;;14.10;1.00;;;;;;5077373;28;20406;-79
2021/05/31 00:56:13;;;;;;;1999.90;999.90;;;14.10;1.00;;;;;;5075926;28;20230;-80
2021/05/31 00:58:39;;;;;;;1999.90;999.90;;;14.10;1.00;;;;;;5078104;28;20241;-80
2021/05/31 01:01:06;;;;;;;1999.90;999.90;;;14.00;1.00;;;;;;5080485;28;20407;-80
2021/05/31 01:03:32;;;;;;;1999.90;999.90;;;14.00;1.00;;;;;;5080397;28;20585;-80
2021/05/31 01:06:04;;;;;;;1999.90;999.90;;;14.00;1.00;;;;;;5080519;28;20405;-80
2021/05/31 01:08:39;;;;;;;1999.90;999.90;;;13.90;1.00;;;;;;5078926;28;20452;-79
2021/05/31 01:11:12;;;;;;;1999.90;999.90;;;13.90;1.00;;;;;;5080355;28;20885;-80
2021/05/31 01:13:41;;;;;;;1999.90;999.90;;;13.80;99.10;;;;;;5080144;28;20393;-80
2021/05/31 01:16:25;;;;;;;1999.90;999.90;;;13.80;1.00;;;;;;5080428;28;20763;-79
2021/05/31 01:18:51;;;;;;;1999.90;999.90;;;13.60;1.00;;;;;;5080255;28;20984;-80
2021/05/31 01:22:02;;;;;;;1999.90;999.90;;;13.50;1.00;;;;;;5080849;28;20408;-80
2021/05/31 01:24:34;;;;;;;1999.90;999.90;;;13.30;99.90;;;;;;4998246;28;20519;-80
2021/05/31 01:27:20;;;;;;;1999.90;999.90;;;13.30;1.00;;;;;;5071840;28;20402;-80
2021/05/31 01:29:52;;;;;;;1999.90;999.90;;;13.20;1.00;;;;;;5080421;28;20429;-80
2021/05/31 01:32:22;;;;;;;1999.90;999.90;;;13.20;1.00;;;;;;5078894;28;20405;-80
2021/05/31 01:34:51;;;;;;;1999.90;999.90;;;13.20;1.00;;;;;;5079831;28;20410;-79
2021/05/31 01:37:20;;;;;;;1999.90;999.90;;;13.20;1.00;;;;;;5079939;28;20489;-79
2021/05/31 01:39:49;;;;;;;1999.90;999.90;;;13.20;1.00;;;;;;5079902;28;20445;-79
2021/05/31 01:42:16;;;;;;;1999.90;999.90;;;13.10;1.00;;;;;;5078580;28;20402;-80
2021/05/31 01:44:43;;;;;;;1999.90;999.90;;;13.00;1.00;;;;;;5080315;28;20420;-80
2021/05/31 01:47:10;;;;;;;1999.90;999.90;;;13.00;1.00;;;;;;5079797;28;20900;-80
2021/05/31 01:49:37;;;;;;;1999.90;999.90;;;12.90;1.00;;;;;;5078443;28;20430;-79
2021/05/31 01:52:06;;;;;;;1999.90;999.90;;;12.90;1.00;;;;;;5078464;28;20951;-79
2021/05/31 01:54:32;;;;;;;1999.90;999.90;;;12.90;1.00;;;;;;5079304;28;20441;-79
2021/05/31 01:56:59;;;;;;;1999.90;999.90;;;12.80;1.00;;;;;;5079480;28;20836;-80
2021/05/31 01:59:26;;;;;;;1999.90;999.90;;;12.80;1.00;;;;;;5078048;28;20503;-79
2021/05/31 02:01:54;;;;;;;1999.90;999.90;;;12.80;1.00;;;;;;5079710;28;20428;-79
2021/05/31 02:04:22;;;;;;;1999.90;999.90;;;12.80;1.00;;;;;;5079017;28;20410;-80
2021/05/31 02:06:52;;;;;;;1999.90;999.90;;;12.80;1.00;;;;;;5078055;28;20499;-80
2021/05/31 02:09:19;;;;;;;1999.90;999.90;;;12.90;1.00;;;;;;5080054;28;20503;-80
2021/05/31 02:11:55;;;;;;;1999.90;999.90;;;12.80;1.00;;;;;;5077189;28;20940;-78
2021/05/31 02:14:47;;;;;;;1999.90;999.90;;;12.80;1.00;;;;;;5078764;28;20406;-80
2021/05/31 02:17:41;;;;;;;1999.90;999.90;;;12.70;26.50;;;;;;5079412;28;20893;-80
2021/05/31 02:20:10;;;;;;;1999.90;999.90;;;12.70;19.10;;;;;;5077781;28;20434;-79
2021/05/31 02:23:01;;;;;;;1999.90;999.90;;;12.60;1.00;;;;;;5078916;28;20417;-79
2021/05/31 02:25:27;;;;;;;1999.90;999.90;;;12.60;1.00;;;;;;5079155;28;20737;-80
2021/05/31 02:27:54;;;;;;;1999.90;999.90;;;12.50;1.00;;;;;;5079234;28;20414;-79
2021/05/31 02:30:21;;;;;;;1999.90;999.90;;;12.40;1.00;;;;;;5077726;28;20410;-79
2021/05/31 02:32:54;;;;;;;1999.90;999.90;;;12.40;35.00;;;;;;5079042;28;20804;-79
2021/05/31 02:35:21;;;;;;;1999.90;999.90;;;12.40;12.70;;;;;;5077806;28;20164;-78
2021/05/31 02:37:50;;;;;;;1999.90;999.90;;;12.40;24.50;;;;;;5077180;28;20497;-80
2021/05/31 02:40:17;;;;;;;1999.90;999.90;;;12.40;65.60;;;;;;5078907;28;20438;-80
2021/05/31 02:42:52;;;;;;;1999.90;999.90;;;12.30;71.70;;;;;;5077554;28;20175;-79
2021/05/31 02:45:19;;;;;;;1999.90;999.90;;;12.20;54.20;;;;;;5077349;28;20168;-79
2021/05/31 02:47:45;;;;;;;1999.90;999.90;;;12.10;57.30;;;;;;5078733;28;20402;-80
2021/05/31 02:50:13;;;;;;;1999.90;999.90;;;12.10;58.40;;;;;;5078764;28;20492;-79
2021/05/31 02:52:42;;;;;;;1999.90;999.90;;;12.00;65.10;;;;;;5078426;28;20922;-79
2021/05/31 02:55:18;;;;;;;1999.90;999.90;;;12.00;76.60;;;;;;5077408;28;20492;-79
2021/05/31 02:57:45;;;;;;;1999.90;999.90;;;12.00;33.00;;;;;;5078759;28;20205;-79
2021/05/31 03:00:14;;;;;;;1999.90;999.90;;;12.00;80.10;;;;;;5078366;28;20271;-80
2021/05/31 03:02:40;;;;;;;1999.90;999.90;;;12.00;72.90;;;;;;5078454;28;20500;-80
2021/05/31 03:05:08;;;;;;;1999.90;999.90;;;12.00;51.70;;;;;;5078256;28;20152;-79
2021/05/31 03:07:34;;;;;;;1999.90;999.90;;;12.00;66.60;;;;;;5078413;28;20410;-80
2021/05/31 03:09:59;;;;;;;1999.90;999.90;;;12.00;45.40;;;;;;5078434;28;20172;-79
2021/05/31 03:12:25;;;;;;;1999.90;999.90;;;12.00;50.10;;;;;;5078228;28;20259;-80
2021/05/31 03:14:51;;;;;;;1999.90;999.90;;;11.90;38.70;;;;;;5078296;28;20164;-79
2021/05/31 03:17:19;;;;;;;1999.90;999.90;;;11.80;68.90;;;;;;5077969;28;20159;-80
2021/05/31 03:19:44;;;;;;;1999.90;999.90;;;11.80;65.00;;;;;;5077873;28;20191;-79
2021/05/31 03:22:11;;;;;;;1999.90;999.90;;;11.80;22.50;;;;;;5075831;28;20174;-79
2021/05/31 03:24:36;;;;;;;1999.90;999.90;;;11.80;22.50;;;;;;5077685;28;20167;-79
2021/05/31 03:27:03;;;;;;;1999.90;999.90;;;11.70;18.50;;;;;;5078311;28;20659;-79
2021/05/31 03:29:29;;;;;;;1999.90;999.90;;;11.70;43.20;;;;;;5076416;28;20191;-79
2021/05/31 03:31:56;;;;;;;1999.90;999.90;;;11.70;29.00;;;;;;5077616;28;20160;-80
2021/05/31 03:34:21;;;;;;;1999.90;999.90;;;11.70;36.20;;;;;;5076563;28;20171;-79
2021/05/31 03:36:47;;;;;;;1999.90;999.90;;;11.70;21.50;;;;;;5076910;28;20166;-79
2021/05/31 03:39:13;;;;;;;1999.90;999.90;;;11.60;25.00;;;;;;5077810;28;20192;-79
2021/05/31 03:41:39;;;;;;;1999.90;999.90;;;11.60;13.50;;;;;;5078347;28;20761;-79
2021/05/31 03:44:05;;;;;;;1999.90;999.90;;;11.70;6.90;;;;;;5075926;28;20168;-80
2021/05/31 03:46:30;;;;;;;1999.90;999.90;;;11.70;1.00;;;;;;5076430;28;20164;-79
2021/05/31 03:48:59;;;;;;;1999.90;999.90;;;11.70;13.80;;;;;;5077526;28;20425;-79
2021/05/31 03:51:25;;;;;;;1999.90;999.90;;;11.70;1.00;;;;;;5077430;28;20174;-79
2021/05/31 03:53:51;;;;;;;1999.90;999.90;;;11.70;1.00;;;;;;5077497;28;20247;-79
2021/05/31 03:56:16;;;;;;;1999.90;999.90;;;11.70;1.00;;;;;;5077152;28;20164;-79
2021/05/31 03:58:44;;;;;;;1999.90;999.90;;;11.60;11.70;;;;;;5077186;28;20445;-79
2021/05/31 04:01:12;;;;;;;1999.90;999.90;;;11.60;28.70;;;;;;5076247;28;20159;-79
2021/05/31 04:03:38;;;;;;;1999.90;999.90;;;11.60;21.00;;;;;;5076142;28;20233;-79
2021/05/31 04:11:36;;;;;;;1999.90;999.90;;;11.60;30.10;;;;;;5077789;28;20199;-80
2021/05/31 04:14:10;;;;;;;1999.90;999.90;;;11.70;1.00;;;;;;5077055;28;20167;-79
2021/05/31 04:16:39;;;;;;;1999.90;999.90;;;11.70;15.40;;;;;;5075968;28;20168;-78
2021/05/31 04:19:06;;;;;;;1999.90;999.90;;;11.80;1.00;;;;;;5076865;28;20237;-80
2021/05/31 04:21:32;;;;;;;1999.90;999.90;;;11.80;1.00;;;;;;5076079;28;20231;-79
2021/05/31 04:23:58;;;;;;;1999.90;999.90;;;11.80;5.50;;;;;;5077406;28;20164;-79
2021/05/31 04:26:24;;;;;;;1999.90;999.90;;;11.80;1.00;;;;;;5076832;28;20277;-79
2021/05/31 04:28:50;;;;;;;1999.90;999.90;;;11.80;1.00;;;;;;5076488;28;20425;-79
2021/05/31 04:31:16;;;;;;;1999.90;999.90;;;11.90;1.00;;;;;;5075963;28;20413;-79
2021/05/31 04:33:42;;;;;;;1999.90;999.90;;;11.90;1.00;;;;;;5080187;28;20254;-80
2021/05/31 04:36:08;;;;;;;1999.90;999.90;;;12.00;1.00;;;;;;5082753;28;20191;-79
2021/05/31 04:38:34;;;;;;;1999.90;999.90;;;12.10;1.00;;;;;;5084095;28;20218;-79
2021/05/31 04:41:00;;;;;;;1999.90;999.90;;;12.30;99.90;;;;;;5082661;28;20535;-80
2021/05/31 04:43:25;;;;;;;1999.90;999.90;;;12.50;1.00;;;;;;5082701;28;20409;-79
2021/05/31 04:45:51;;;;;;;1999.90;999.90;;;12.80;1.00;;;;;;5084019;28;20242;-80
2021/05/31 04:48:17;;;;;;;1999.90;999.90;;;13.00;99.90;;;;;;5083748;28;20329;-79
2021/05/31 04:50:43;;;;;;;1999.90;999.90;;;13.20;99.90;;;;;;5083838;28;20159;-79
2021/05/31 04:53:10;;;;;;;1999.90;999.90;;;13.50;99.90;;;;;;5083624;28;20229;-80
2021/05/31 04:55:39;;;;;;;1999.90;999.90;;;13.70;99.90;;;;;;5082144;28;20410;-79
2021/05/31 04:58:05;;;;;;;1999.90;999.90;;;13.90;24.50;;;;;;5083193;28;20417;-80
2021/05/31 05:00:31;;;;;;;1999.90;999.90;;;14.20;1.00;;;;;;5083261;28;20511;-79
2021/05/31 05:02:57;;;;;;;1999.90;999.90;;;14.50;1.00;;;;;;5081853;28;20190;-79
2021/05/31 05:05:23;;;;;;;1999.90;999.90;;;14.70;1.00;;;;;;5083657;28;20493;-79
2021/05/31 05:07:50;;;;;;;1999.90;999.90;;;14.90;1.00;;;;;;5082421;28;20252;-80
2021/05/31 05:10:18;;;;;;;1999.90;999.90;;;15.00;1.00;;;;;;5083400;28;20398;-79
2021/05/31 05:12:45;;;;;;;1999.90;999.90;;;15.10;1.00;;;;;;5082126;28;20175;-80
2021/05/31 05:15:12;;;;;;;1999.90;999.90;;;15.20;1.00;;;;;;5082995;28;20773;-79
2021/05/31 05:17:38;;;;;;;1999.90;999.90;;;15.30;1.00;;;;;;5083879;28;20459;-80
2021/05/31 05:20:07;;;;;;;1999.90;999.90;;;15.30;1.00;;;;;;5083421;28;20513;-80
2021/05/31 05:22:36;;;;;;;1999.90;999.90;;;15.40;1.00;;;;;;5083235;28;20417;-80
2021/05/31 05:25:01;;;;;;;1999.90;999.90;;;15.40;1.00;;;;;;5083128;28;20497;-79
2021/05/31 05:27:27;;;;;;;1999.90;999.90;;;15.50;1.00;;;;;;5081643;28;20499;-80
2021/05/31 05:29:53;;;;;;;1999.90;999.90;;;15.50;1.00;;;;;;5082198;28;20189;-79
2021/05/31 05:32:19;;;;;;;1999.90;999.90;;;15.40;1.00;;;;;;5082318;28;20172;-80
2021/05/31 05:34:45;;;;;;;1999.90;999.90;;;15.20;1.00;;;;;;5083429;28;20168;-79
2021/05/31 05:37:33;;;;;;;1999.90;999.90;;;15.10;1.00;;;;;;5081602;28;20424;-79
2021/05/31 05:48:13;;;;;;;1999.90;999.90;;;15.10;1.00;;;;;;5057174;28;20942;-80
2021/05/31 05:50:39;;;;;;;1999.90;999.90;;;15.00;1.00;;;;;;5067428;28;20439;-80
2021/05/31 05:53:05;;;;;;;1999.90;999.90;;;15.10;1.00;;;;;;5080113;28;20160;-80
2021/05/31 05:55:31;;;;;;;1999.90;999.90;;;15.10;1.00;;;;;;5078351;28;20168;-80
2021/05/31 05:57:57;;;;;;;1999.90;999.90;;;15.20;1.00;;;;;;5079764;28;20999;-80
2021/05/31 06:00:26;;;;;;;1999.90;999.90;;;15.20;22.70;;;;;;5079349;28;20455;-79
2021/05/31 06:02:55;;;;;;;1999.90;999.90;;;15.30;99.90;;;;;;5126098;22;20475;-80
2021/05/31 06:05:24;;;;;;;1999.90;999.90;;;15.30;99.90;;;;;;5022292;28;20475;-80
2021/05/31 06:08:04;;;;;;;1999.90;999.90;;;15.40;99.90;;;;;;5039546;28;20417;-80
2021/05/31 06:10:33;;;;;;;1999.90;999.90;;;15.40;99.90;;;;;;5039950;28;20542;-80
2021/05/31 06:13:23;;;;;;;1999.90;999.90;;;15.50;1.00;;;;;;5039494;28;20396;-80
2021/05/31 06:16:11;;;;;;;1999.90;999.90;;;15.50;1.00;;;;;;5000807;28;20442;-80
2021/05/31 06:18:42;;;;;;;1999.90;999.90;;;15.50;1.00;;;;;;5039265;28;20448;-80
2021/05/31 06:21:20;;;;;;;1999.90;999.90;;;15.60;1.00;;;;;;5021975;28;20520;-81
2021/05/31 06:23:51;;;;;;;1999.90;999.90;;;15.60;1.00;;;;;;5038566;28;20408;-80
2021/05/31 06:26:19;;;;;;;1999.90;999.90;;;15.70;1.00;;;;;;5039374;28;20872;-81
2021/05/31 06:28:57;;;;;;;1999.90;999.90;;;15.60;1.00;;;;;;5038857;28;20443;-80
2021/05/31 06:31:25;;;;;;;1999.90;999.90;;;15.70;1.70;;;;;;5021038;28;20410;-80
2021/05/31 06:34:00;;;;;;;1999.90;999.90;;;15.70;99.90;;;;;;5020718;28;20412;-80
2021/05/31 06:36:26;;;;;;;1999.90;999.90;;;15.80;99.90;;;;;;5022135;28;20396;-80
2021/05/31 06:38:52;;;;;;;1999.90;999.90;;;15.80;3.60;;;;;;5039397;28;20504;-80
2021/05/31 06:41:19;;;;;;;1999.90;999.90;;;15.90;99.90;;;;;;5021644;28;20916;-80
2021/05/31 06:43:45;;;;;;;1999.90;999.90;;;16.00;51.00;;;;;;5039025;28;20634;-80
2021/05/31 06:46:14;;;;;;;1999.90;999.90;;;16.00;1.00;;;;;;5039361;28;20404;-81
2021/05/31 06:48:52;;;;;;;1999.90;999.90;;;16.10;5.50;;;;;;5021323;28;20426;-79
2021/05/31 06:51:18;;;;;;;1999.90;999.90;;;16.00;99.90;;;;;;5037186;28;20413;-80
2021/05/31 06:53:47;;;;;;;1999.90;999.90;;;16.10;99.90;;;;;;5038553;28;20920;-81
2021/05/31 06:56:16;;;;;;;1999.90;999.90;;;16.20;99.90;;;;;;5021286;28;20416;-80
2021/05/31 06:58:45;;;;;;;1999.90;999.90;;;16.20;99.90;;;;;;5021830;28;20540;-81
2021/05/31 07:01:14;;;;;;;1999.90;999.90;;;16.30;99.90;;;;;;5021065;28;20407;-81
2021/05/31 07:03:43;;;;;;;1999.90;999.90;;;16.30;1.00;;;;;;5039318;28;20475;-80
2021/05/31 07:06:11;;;;;;;1999.90;999.90;;;16.40;99.90;;;;;;5038710;28;20418;-80
2021/05/31 07:08:37;;;;;;;1999.90;999.90;;;16.40;99.90;;;;;;5039654;28;20422;-81
2021/05/31 07:11:10;;;;;;;1999.90;999.90;;;16.50;99.90;;;;;;5038791;28;20410;-81
2021/05/31 07:13:41;;;;;;;1999.90;999.90;;;16.50;1.00;;;;;;5039237;28;20146;-81
2021/05/31 07:16:12;;;;;;;1999.90;999.90;;;16.60;1.00;;;;;;5038524;28;20375;-81
2021/05/31 07:19:02;;;;;;;1999.90;999.90;;;16.60;99.90;;;;;;5021299;28;20537;-81
2021/05/31 07:21:41;;;;;;;1999.90;999.90;;;16.60;99.90;;;;;;5038676;28;20413;-81
2021/05/31 07:24:18;;;;;;;1999.90;999.90;;;16.70;1.00;;;;;;5038259;28;20382;-80
2021/05/31 07:26:50;;;;;;;1999.90;999.90;;;16.70;1.00;;;;;;5037802;28;20377;-79
2021/05/31 07:29:40;;;;;;;1999.90;999.90;;;16.80;1.00;;;;;;5037916;28;20429;-81
2021/05/31 07:32:47;;;;;;;1999.90;999.90;;;16.80;1.00;;;;;;5038589;28;20866;-81
2021/05/31 07:35:54;;;;;;;1999.90;999.90;;;16.90;1.00;;;;;;4957446;29;20437;-81
2021/05/31 07:38:20;;;;;;;1999.90;999.90;;;16.90;1.00;;;;;;4993954;23;20476;-79
2021/05/31 07:40:55;;;;;;;1999.90;999.90;;;17.00;1.00;;;;;;5077679;28;20451;-80
2021/05/31 07:43:25;;;;;;;1999.90;999.90;;;17.10;1.00;;;;;;5078301;28;20376;-81
2021/05/31 07:46:03;;;;;;;1999.90;999.90;;;17.20;99.90;;;;;;5078153;28;20873;-80
2021/05/31 07:48:34;;;;;;;1999.90;999.90;;;17.20;1.00;;;;;;5077431;28;20417;-80
2021/05/31 07:51:26;;;;;;;1999.90;999.90;;;17.30;99.90;;;;;;5078052;28;20386;-80
2021/05/31 07:54:25;;;;;;;1999.90;999.90;;;17.40;99.90;;;;;;5078108;28;20439;-80
2021/05/31 07:56:54;;;;;;;1999.90;999.90;;;17.40;99.90;;;;;;5078066;28;20371;-81
2021/05/31 07:59:28;;;;;;;1999.90;999.90;;;17.50;99.90;;;;;;5078144;28;20451;-80
2021/05/31 08:02:12;;;;;;;1999.90;999.90;;;17.60;99.90;;;;;;5076605;28;20951;-81
2021/05/31 08:04:50;;;;;;;1999.90;999.90;;;17.60;1.00;;;;;;5076176;28;20401;-81
2021/05/31 08:07:32;;;;;;;1999.90;999.90;;;17.70;99.90;;;;;;5075897;28;20398;-81
2021/05/31 08:10:00;;;;;;;1999.90;999.90;;;17.80;1.00;;;;;;5076330;28;20492;-82
2021/05/31 08:12:38;;;;;;;1999.90;999.90;;;17.80;1.00;;;;;;5078104;28;20406;-82
2021/05/31 08:15:08;;;;;;;1999.90;999.90;;;17.90;1.00;;;;;;5078324;28;20389;-82
2021/05/31 08:18:11;;;;;;;;;;;;;;;;;;;;;
2021/05/31 08:20:49;;;;;;;1999.90;999.90;;;17.90;99.90;;;;;;5078959;28;20520;-82
2021/05/31 08:23:17;;;;;;;1999.90;999.90;;;18.00;1.00;;;;;;5078318;28;20386;-82
2021/05/31 08:25:57;;;;;;;1999.90;999.90;;;17.90;1.00;;;;;;5077617;28;20401;-82
2021/05/31 08:28:23;;;;;;;1999.90;999.90;;;18.10;99.90;;;;;;5077991;28;20466;-82
2021/05/31 08:30:54;;;;;;;1999.90;999.90;;;18.10;26.60;;;;;;5076640;28;20418;-82
2021/05/31 08:33:34;;;;;;;1999.90;999.90;;;18.10;99.90;;;;;;5076707;28;20468;-82
2021/05/31 08:36:00;;;;;;;1999.90;999.90;;;18.10;1.00;;;;;;5077494;28;20379;-82
2021/05/31 08:38:35;;;;;;;1999.90;999.90;;;18.20;99.90;;;;;;5078263;28;20434;-82
2021/05/31 08:41:01;;;;;;;1999.90;999.90;;;18.40;22.30;;;;;;5078630;28;20501;-82
2021/05/31 08:43:44;;;;;;;1999.90;999.90;;;18.50;1.00;;;;;;5078908;28;20789;-82
2021/05/31 08:46:10;;;;;;;1999.90;999.90;;;18.50;1.00;;;;;;5078385;28;20497;-82
2021/05/31 08:48:42;;;;;;;1999.90;999.90;;;18.50;99.90;;;;;;5077319;28;20446;-82
2021/05/31 08:51:08;;;;;;;1999.90;999.90;;;18.60;99.90;;;;;;5077051;28;20408;-82
2021/05/31 08:53:39;;;;;;;1999.90;999.90;;;18.70;1.00;;;;;;5076744;28;20505;-82
2021/05/31 08:56:05;;;;;;;1999.90;999.90;;;18.70;99.90;;;;;;5078454;28;20161;-82
2021/05/31 08:58:30;;;;;;;1999.90;999.90;;;18.70;1.00;;;;;;5078140;28;20446;-82
2021/05/31 09:00:56;;;;;;;1999.90;999.90;;;18.90;99.90;;;;;;5078223;28;21010;-82
2021/05/31 09:03:25;;;;;;;1999.90;999.90;;;19.00;99.90;;;;;;5077936;28;20519;-82
2021/05/31 09:06:10;;;;;;;1999.90;999.90;;;19.10;99.90;;;;;;5078765;28;20149;-82
2021/05/31 09:08:45;;;;;;;1999.90;999.90;;;19.20;99.90;;;;;;5076719;28;20820;-82
2021/05/31 09:11:18;;;;;;;1999.90;999.90;;;19.20;99.90;;;;;;5076854;28;20455;-82
2021/05/31 09:13:44;;;;;;;1999.90;999.90;;;19.30;99.90;;;;;;5075298;28;20536;-82
2021/05/31 09:16:15;;;;;;;1999.90;999.90;;;19.40;99.90;;;;;;5077461;28;20449;-82
2021/05/31 09:19:06;;;;;;;1999.90;999.90;;;19.40;99.90;;;;;;5078070;28;20187;-82
2021/05/31 09:21:34;;;;;;;1999.90;999.90;;;19.60;99.90;;;;;;5070171;28;20418;-81
2021/05/31 09:24:08;;;;;;;1999.90;999.90;;;19.60;99.90;;;;;;5080839;28;20391;-81
2021/05/31 09:27:07;;;;;;;1999.90;999.90;;;19.70;99.90;;;;;;5080951;28;20382;-81
2021/05/31 09:29:33;;;;;;;1999.90;999.90;;;19.80;99.90;;;;;;5037077;28;20431;-82
2021/05/31 09:32:01;;;;;;;1999.90;999.90;;;20.00;99.90;;;;;;5080704;28;20402;-81
2021/05/31 09:34:27;;;;;;;1999.90;999.90;;;20.20;1.00;;;;;;5081263;28;20171;-81
2021/05/31 09:37:01;;;;;;;1999.90;999.90;;;20.30;1.00;;;;;;5081221;28;20786;-81
2021/05/31 09:39:56;;;;;;;1999.90;999.90;;;20.50;99.90;;;;;;5078806;28;20203;-81
2021/05/31 09:42:24;;;;;;;1999.90;999.90;;;20.70;1.00;;;;;;5080953;28;20805;-81
2021/05/31 09:45:09;;;;;;;1999.90;999.90;;;20.90;1.00;;;;;;5080848;28;20401;-81
2021/05/31 09:47:36;;;;;;;1999.90;999.90;;;21.20;1.00;;;;;;5079993;28;20401;-81
2021/05/31 09:50:04;;;;;;;1999.90;999.90;;;21.40;1.00;;;;;;5080815;28;20452;-81
2021/05/31 09:52:40;;;;;;;1999.90;999.90;;;21.60;10.40;;;;;;5080432;28;20759;-81
2021/05/31 09:55:15;;;;;;;1999.90;999.90;;;21.70;21.90;;;;;;5079195;28;20408;-81
2021/05/31 09:57:40;;;;;;;1999.90;999.90;;;21.90;21.00;;;;;;5078961;28;20411;-81
2021/05/31 10:00:31;;;;;;;1999.90;999.90;;;22.10;16.20;;;;;;5080446;28;20444;-81
2021/05/31 10:03:04;;;;;;;1999.90;999.90;;;22.30;12.30;;;;;;5080149;28;20175;-81
2021/05/31 10:05:42;;;;;;;1999.90;999.90;;;22.60;10.80;;;;;;5079131;28;20390;-81
2021/05/31 10:10:35;;;;;;;1999.90;999.90;;;23.20;6.20;;;;;;5080544;28;20762;-81
2021/05/31 10:13:01;;;;;;;1999.90;999.90;;;23.50;5.20;;;;;;5079699;28;20816;-81
2021/05/31 10:15:33;;;;;;;1999.90;999.90;;;23.80;3.10;;;;;;5080544;28;20445;-81
2021/05/31 10:18:00;;;;;;;1999.90;999.90;;;24.10;5.60;;;;;;5078509;28;20576;-81
2021/05/31 10:20:29;;;;;;;1999.90;999.90;;;24.00;1.00;;;;;;5079017;28;20456;-81
2021/05/31 10:22:56;;;;;;;1999.90;999.90;;;23.90;1.00;;;;;;5080128;28;20412;-81
2021/05/31 10:25:24;;;;;;;1999.90;999.90;;;23.60;1.00;;;;;;5078930;28;20410;-81
2021/05/31 10:27:55;;;;;;;1999.90;999.90;;;23.20;1.00;;;;;;5080154;28;20415;-81
2021/05/31 10:30:21;;;;;;;1999.90;999.90;;;23.30;1.00;;;;;;5080379;28;20448;-81
2021/05/31 10:32:56;;;;;;;1999.90;999.90;;;23.60;1.00;;;;;;5079810;28;20409;-81
2021/05/31 10:35:26;;;;;;;1999.90;999.90;;;23.60;1.00;;;;;;5079107;28;20788;-81
2021/05/31 10:37:58;;;;;;;1999.90;999.90;;;23.80;1.00;;;;;;5078465;28;20450;-81
2021/05/31 10:40:41;;;;;;;1999.90;999.90;;;24.00;1.00;;;;;;5078524;28;20464;-81
2021/05/31 10:43:09;;;;;;;1999.90;999.90;;;24.30;1.00;;;;;;5080026;28;20404;-81
2021/05/31 10:45:36;;;;;;;1999.90;999.90;;;24.60;1.00;;;;;;5078881;28;20414;-81
2021/05/31 10:48:31;;;;;;;1999.90;999.90;;;24.60;1.00;;;;;;5077835;28;20434;-81
2021/05/31 10:50:59;;;;;;;1999.90;999.90;;;24.90;1.00;;;;;;5078313;28;20391;-81
2021/05/31 10:53:31;;;;;;;1999.90;999.90;;;24.10;1.00;;;;;;5079952;28;20391;-81
2021/05/31 10:56:20;;;;;;;1999.90;999.90;;;23.50;1.00;;;;;;5079244;28;20902;-81
2021/05/31 10:58:52;;;;;;;1999.90;999.90;;;23.30;1.00;;;;;;5077955;28;20458;-81
2021/05/31 11:01:27;;;;;;;1999.90;999.90;;;23.30;1.00;;;;;;5079483;28;20898;-81
2021/05/31 11:04:01;;;;;;;1999.90;999.90;;;23.40;1.00;;;;;;5078463;28;20413;-81
2021/05/31 11:06:31;;;;;;;1999.90;999.90;;;23.20;1.00;;;;;;5078928;28;20493;-81
2021/05/31 11:09:07;;;;;;;1999.90;999.90;;;23.10;1.00;;;;;;5079624;28;20418;-81
2021/05/31 11:11:48;;;;;;;1999.90;999.90;;;23.00;1.00;;;;;;5079471;28;20489;-81
2021/05/31 11:14:14;;;;;;;1999.90;999.90;;;22.80;1.00;;;;;;5077970;28;20992;-81
2021/05/31 11:17:09;;;;;;;1999.90;999.90;;;23.20;1.00;;;;;;5077534;28;20509;-81
2021/05/31 11:19:37;;;;;;;1999.90;999.90;;;23.80;1.00;;;;;;5077183;28;20454;-81
2021/05/31 11:22:26;;;;;;;1999.90;999.90;;;24.20;1.00;;;;;;5078839;28;20402;-81
2021/05/31 11:25:05;;;;;;;1999.90;999.90;;;24.70;1.00;;;;;;5079587;28;20397;-81
2021/05/31 11:27:38;;;;;;;1999.90;999.90;;;24.60;1.00;;;;;;5079123;28;20397;-81
2021/05/31 11:30:12;;;;;;;1999.90;999.90;;;24.50;1.00;;;;;;5076953;28;20410;-81
2021/05/31 11:32:40;;;;;;;1999.90;999.90;;;24.20;1.00;;;;;;5078540;28;20382;-81
2021/05/31 11:35:08;;;;;;;1999.90;999.90;;;24.10;1.00;;;;;;5078494;28;20400;-81
2021/05/31 11:37:35;;;;;;;1999.90;999.90;;;23.70;1.00;;;;;;5077955;28;20395;-81
2021/05/31 11:40:05;;;;;;;1999.90;999.90;;;23.80;1.00;;;;;;5077293;28;20860;-81
2021/05/31 11:42:33;;;;;;;1999.90;999.90;;;23.30;1.00;;;;;;5078215;28;20409;-81
2021/05/31 11:44:59;;;;;;;1999.90;999.90;;;23.50;1.00;;;;;;5078634;28;20758;-81
2021/05/31 11:47:33;;;;;;;1999.90;999.90;;;24.00;1.00;;;;;;5078728;28;20403;-81
2021/05/31 11:49:59;;;;;;;1999.90;999.90;;;24.30;1.00;;;;;;5078168;28;20390;-81
2021/05/31 11:52:26;;;;;;;1999.90;999.90;;;24.90;1.00;;;;;;5078496;28;20452;-81
2021/05/31 11:54:52;;;;;;;1999.90;999.90;;;25.00;1.00;;;;;;5077484;28;20506;-82
2021/05/31 11:57:23;;;;;;;1999.90;999.90;;;25.00;1.00;;;;;;5077108;28;20482;-81
2021/05/31 11:59:51;;;;;;;1999.90;999.90;;;25.10;1.00;;;;;;5078095;28;20199;-81
2021/05/31 12:02:19;;;;;;;1999.90;999.90;;;25.00;1.00;;;;;;5078491;28;20425;-81
2021/05/31 12:04:49;;;;;;;1999.90;999.90;;;25.20;1.00;;;;;;5145537;22;20481;-80
2021/05/31 12:07:22;;;;;;;1999.90;999.90;;;25.30;1.00;;;;;;5076502;28;20423;-79
2021/05/31 12:09:48;;;;;;;1999.90;999.90;;;25.80;1.00;;;;;;5074045;28;20452;-79
2021/05/31 12:12:20;;;;;;;1999.90;999.90;;;25.60;1.00;;;;;;5076447;28;20475;-80
2021/05/31 12:14:51;;;;;;;1999.90;999.90;;;25.50;1.00;;;;;;5076127;28;20166;-80
2021/05/31 12:17:21;;;;;;;1999.90;999.90;;;25.50;1.00;;;;;;5076058;28;20380;-80
2021/05/31 12:19:49;;;;;;;1999.90;999.90;;;25.50;1.00;;;;;;5076208;28;20497;-80
2021/05/31 12:22:16;;;;;;;1999.90;999.90;;;25.90;1.00;;;;;;5076825;28;20483;-80
2021/05/31 12:24:47;;;;;;;1999.90;999.90;;;26.20;1.00;;;;;;5075366;28;20452;-80
2021/05/31 12:27:14;;;;;;;1999.90;999.90;;;26.40;1.00;;;;;;5076163;28;20469;-80
2021/05/31 12:29:48;;;;;;;1999.90;999.90;;;26.60;1.00;;;;;;5076667;28;20427;-79
2021/05/31 12:35:04;;;;;;;1999.90;999.90;;;26.00;1.00;;;;;;5075630;28;20432;-79
2021/05/31 12:37:32;;;;;;;1999.90;999.90;;;25.50;1.00;;;;;;5075731;28;20426;-79
2021/05/31 12:40:02;;;;;;;1999.90;999.90;;;25.50;1.00;;;;;;5076757;28;20498;-80
2021/05/31 12:42:30;;;;;;;1999.90;999.90;;;25.60;1.00;;;;;;5076976;28;20387;-80
2021/05/31 12:45:15;;;;;;;1999.90;999.90;;;25.50;1.00;;;;;;5076063;28;20399;-80